createdAt,value
2018-12-30T00:01:53.118Z,11.93
2018-12-30T00:04:19.818Z,12.33
2018-12-30T00:06:45.830Z,11.23
2018-12-30T00:09:11.878Z,11.97
2018-12-30T00:11:38.622Z,12.27
2018-12-30T00:14:05.358Z,10.53
2018-12-30T00:16:32.089Z,13.80
2018-12-30T00:18:58.847Z,13.30
2018-12-30T00:21:25.602Z,12.60
2018-12-30T00:23:51.610Z,13.37
2018-12-30T00:26:18.366Z,12.30
2018-12-30T00:28:44.354Z,12.93
2018-12-30T00:31:10.362Z,12.80
2018-12-30T00:33:36.403Z,13.03
2018-12-30T00:36:02.398Z,13.37
2018-12-30T00:38:28.398Z,12.30
2018-12-30T00:40:54.417Z,12.20
2018-12-30T00:43:20.426Z,13.93
2018-12-30T00:45:46.435Z,12.27
2018-12-30T00:48:12.457Z,12.97
2018-12-30T00:50:38.449Z,14.00
2018-12-30T00:53:04.437Z,13.20
2018-12-30T00:55:30.450Z,13.00
2018-12-30T00:57:56.440Z,13.77
2018-12-30T01:00:22.426Z,13.10
2018-12-30T01:02:48.442Z,13.00
2018-12-30T01:05:14.446Z,13.80
2018-12-30T01:07:40.435Z,12.50
2018-12-30T01:10:07.190Z,13.33
2018-12-30T01:12:33.173Z,14.03
2018-12-30T01:14:59.154Z,12.30
2018-12-30T01:17:25.155Z,13.27
2018-12-30T01:19:51.142Z,13.70
2018-12-30T01:22:17.118Z,12.67
2018-12-30T01:24:43.131Z,12.20
2018-12-30T01:27:09.878Z,12.40
2018-12-30T01:29:35.875Z,10.60
2018-12-30T01:32:02.658Z,12.33
2018-12-30T01:34:28.671Z,11.83
2018-12-30T01:36:54.684Z,12.50
2018-12-30T01:39:21.421Z,11.40
2018-12-30T01:41:48.146Z,10.73
2018-12-30T01:44:14.134Z,11.27
2018-12-30T01:46:40.138Z,11.40
2018-12-30T01:49:07.329Z,11.20
2018-12-30T01:51:33.344Z,10.53
2018-12-30T01:53:59.334Z,11.37
2018-12-30T01:56:25.330Z,10.33
2018-12-30T01:58:51.331Z,9.43
2018-12-30T02:01:17.309Z,9.03
2018-12-30T02:03:43.334Z,10.23
2018-12-30T02:06:09.342Z,7.97
2018-12-30T02:08:35.346Z,8.43
2018-12-30T02:11:01.341Z,8.83
2018-12-30T02:13:27.310Z,7.60
2018-12-30T02:15:53.306Z,8.00
2018-12-30T02:18:19.297Z,10.03
2018-12-30T02:20:45.299Z,8.07
2018-12-30T02:23:11.266Z,7.23
2018-12-30T02:25:37.255Z,7.60
2018-12-30T02:28:03.254Z,7.30
2018-12-30T02:30:29.223Z,6.20
2018-12-30T02:32:55.199Z,6.30
2018-12-30T02:35:21.202Z,7.33
2018-12-30T02:37:47.192Z,5.90
2018-12-30T02:40:13.191Z,5.57
2018-12-30T02:42:39.187Z,5.73
2018-12-30T02:45:05.197Z,6.60
2018-12-30T02:47:31.179Z,5.23
2018-12-30T02:49:57.159Z,5.70
2018-12-30T02:52:23.176Z,6.53
2018-12-30T02:54:49.155Z,5.73
2018-12-30T02:57:15.135Z,6.20
2018-12-30T02:59:41.186Z,4.90
2018-12-30T03:02:07.167Z,5.20
2018-12-30T03:04:33.144Z,5.17
2018-12-30T03:06:59.139Z,5.53
2018-12-30T03:09:25.139Z,4.70
2018-12-30T03:11:51.118Z,5.60
2018-12-30T03:14:17.110Z,5.60
2018-12-30T03:16:43.134Z,4.90
2018-12-30T03:19:09.130Z,5.13
2018-12-30T03:21:35.118Z,5.53
2018-12-30T03:24:01.131Z,5.10
2018-12-30T03:26:27.114Z,4.40
2018-12-30T03:28:53.098Z,4.50
2018-12-30T03:31:19.103Z,4.17
2018-12-30T03:33:45.104Z,5.13
2018-12-30T03:36:11.152Z,4.37
2018-12-30T03:38:37.148Z,4.30
2018-12-30T03:41:03.352Z,4.33
2018-12-30T03:43:29.367Z,4.40
2018-12-30T03:45:56.104Z,4.70
2018-12-30T03:48:22.840Z,4.07
2018-12-30T03:50:48.819Z,4.50
2018-12-30T03:53:14.802Z,4.90
2018-12-30T03:55:41.521Z,4.17
2018-12-30T03:58:07.488Z,3.87
2018-12-30T04:00:33.490Z,3.83
2018-12-30T04:02:59.463Z,4.07
2018-12-30T04:05:26.509Z,3.03
2018-12-30T04:07:52.546Z,5.07
2018-12-30T04:10:18.494Z,4.40
2018-12-30T04:12:44.494Z,4.43
2018-12-30T04:15:10.509Z,3.33
2018-12-30T04:17:36.503Z,3.17
2018-12-30T04:20:02.462Z,3.53
2018-12-30T04:22:29.195Z,4.77
2018-12-30T04:24:55.169Z,5.50
2018-12-30T04:27:21.129Z,3.70
2018-12-30T04:29:47.100Z,4.10
2018-12-30T04:32:13.075Z,3.90
2018-12-30T04:34:39.024Z,3.53
2018-12-30T04:37:04.981Z,3.93
2018-12-30T04:39:30.992Z,4.00
2018-12-30T04:41:57.007Z,5.57
2018-12-30T04:44:23.713Z,4.07
2018-12-30T04:46:49.710Z,4.50
2018-12-30T04:49:15.677Z,4.43
2018-12-30T04:51:42.378Z,5.03
2018-12-30T04:54:08.363Z,5.20
2018-12-30T04:56:34.339Z,3.83
2018-12-30T04:59:00.291Z,4.00
2018-12-30T05:01:26.249Z,4.37
2018-12-30T05:03:52.221Z,4.20
2018-12-30T05:06:18.925Z,4.03
2018-12-30T05:08:44.926Z,4.97
2018-12-30T05:11:10.901Z,4.80
2018-12-30T05:13:36.915Z,5.20
2018-12-30T05:16:02.901Z,5.33
2018-12-30T05:18:28.890Z,5.00
2018-12-30T05:20:54.871Z,5.17
2018-12-30T05:23:20.846Z,6.07
2018-12-30T05:25:46.847Z,4.10
2018-12-30T05:28:12.816Z,4.70
2018-12-30T05:30:38.780Z,4.90
2018-12-30T05:33:04.834Z,5.47
2018-12-30T05:35:30.818Z,5.40
2018-12-30T05:37:57.518Z,5.47
2018-12-30T05:40:23.489Z,4.90
2018-12-30T05:42:49.454Z,4.70
2018-12-30T05:45:15.427Z,5.23
2018-12-30T05:49:36.027Z,5.12
2018-12-30T05:52:02.162Z,4.80
2018-12-30T05:54:28.296Z,4.40
2018-12-30T05:56:54.475Z,3.00
2018-12-30T05:59:20.643Z,3.83
2018-12-30T06:01:46.925Z,4.00
2018-12-30T06:04:13.099Z,5.20
2018-12-30T06:06:39.290Z,4.40
2018-12-30T06:09:05.483Z,3.20
2018-12-30T06:11:31.707Z,3.37
2018-12-30T06:13:58.571Z,4.70
2018-12-30T06:16:24.724Z,4.20
2018-12-30T06:18:50.850Z,4.80
2018-12-30T06:21:17.023Z,4.50
2018-12-30T06:23:43.905Z,4.10
2018-12-30T06:26:10.094Z,4.20
2018-12-30T06:28:36.975Z,4.87
2018-12-30T06:31:03.168Z,4.50
2018-12-30T06:33:30.043Z,4.03
2018-12-30T06:35:56.208Z,4.90
2018-12-30T06:38:22.405Z,4.40
2018-12-30T06:40:48.602Z,5.10
2018-12-30T06:43:15.531Z,4.73
2018-12-30T06:45:41.624Z,4.80
2018-12-30T06:48:07.819Z,4.70
2018-12-30T06:50:33.913Z,5.40
2018-12-30T06:53:00.115Z,5.70
2018-12-30T06:55:27.011Z,5.00
2018-12-30T06:57:53.169Z,4.63
2018-12-30T07:00:19.339Z,4.90
2018-12-30T07:02:46.225Z,4.33
2018-12-30T07:05:12.381Z,4.73
2018-12-30T07:07:38.622Z,5.23
2018-12-30T07:10:04.816Z,4.70
2018-12-30T07:12:30.984Z,4.73
2018-12-30T07:14:57.189Z,4.57
2018-12-30T07:17:23.342Z,5.93
2018-12-30T07:19:49.477Z,4.37
2018-12-30T07:22:15.595Z,5.30
2018-12-30T07:24:41.740Z,6.10
2018-12-30T07:27:08.619Z,4.87
2018-12-30T07:29:34.841Z,5.90
2018-12-30T07:32:00.979Z,5.07
2018-12-30T07:34:27.304Z,4.40
2018-12-30T07:36:53.481Z,4.60
2018-12-30T07:39:20.370Z,5.90
2018-12-30T07:41:46.501Z,5.00
2018-12-30T07:44:12.663Z,4.57
2018-12-30T07:46:38.906Z,5.03
2018-12-30T07:49:05.027Z,5.23
2018-12-30T07:51:31.958Z,5.10
2018-12-30T07:53:58.146Z,4.60
2018-12-30T07:56:24.302Z,5.20
2018-12-30T07:58:50.488Z,5.50
2018-12-30T08:01:16.608Z,5.00
2018-12-30T08:03:42.718Z,4.90
2018-12-30T08:06:09.615Z,5.90
2018-12-30T08:08:35.773Z,6.53
2018-12-30T08:11:01.895Z,5.67
2018-12-30T08:13:28.071Z,5.93
2018-12-30T08:15:54.165Z,5.93
2018-12-30T08:18:20.280Z,5.60
2018-12-30T08:20:46.400Z,5.93
2018-12-30T08:23:13.329Z,5.67
2018-12-30T08:25:39.542Z,5.53
2018-12-30T08:28:05.887Z,5.30
2018-12-30T08:30:32.033Z,5.13
2018-12-30T08:32:58.920Z,4.20
2018-12-30T08:35:25.058Z,6.20
2018-12-30T08:37:51.231Z,4.90
2018-12-30T08:40:17.357Z,4.87
2018-12-30T08:42:43.541Z,4.90
2018-12-30T08:45:09.682Z,5.70
2018-12-30T08:47:35.852Z,5.27
2018-12-30T08:50:02.044Z,5.83
2018-12-30T08:52:28.199Z,4.80
2018-12-30T08:54:54.364Z,4.20
2018-12-30T08:57:20.505Z,4.13
2018-12-30T08:59:46.695Z,4.13
2018-12-30T09:02:13.605Z,4.67
2018-12-30T09:04:39.782Z,5.27
2018-12-30T09:07:06.644Z,5.00
2018-12-30T09:09:32.820Z,4.67
2018-12-30T09:11:58.995Z,4.50
2018-12-30T09:14:25.149Z,5.13
2018-12-30T09:16:51.300Z,5.17
2018-12-30T09:19:17.495Z,4.40
2018-12-30T09:21:43.622Z,4.90
2018-12-30T09:24:09.778Z,5.00
2018-12-30T09:26:35.977Z,4.97
2018-12-30T09:29:02.171Z,6.20
2018-12-30T09:31:28.424Z,5.30
2018-12-30T09:33:54.593Z,5.67
2018-12-30T09:36:27.844Z,5.87
2018-12-30T09:39:03.980Z,5.27
2018-12-30T09:41:30.114Z,5.93
2018-12-30T09:43:56.264Z,4.90
2018-12-30T09:46:22.455Z,5.23
2018-12-30T09:48:48.608Z,6.33
2018-12-30T09:51:14.732Z,6.53
2018-12-30T09:53:45.064Z,5.90
2018-12-30T09:56:07.782Z,7.30
2018-12-30T09:58:33.913Z,8.27
2018-12-30T10:01:00.098Z,9.13
2018-12-30T10:03:26.265Z,7.57
2018-12-30T10:05:54.277Z,6.70
2018-12-30T10:08:20.488Z,8.20
2018-12-30T10:10:46.647Z,6.50
2018-12-30T10:13:12.765Z,7.00
2018-12-30T10:15:38.894Z,6.57
2018-12-30T10:18:05.119Z,7.33
2018-12-30T10:20:31.257Z,5.90
2018-12-30T10:22:58.845Z,6.60
2018-12-30T10:25:23.933Z,7.30
2018-12-30T10:27:50.260Z,6.87
2018-12-30T10:30:16.274Z,5.67
2018-12-30T10:32:42.278Z,6.30
2018-12-30T10:35:08.370Z,5.53
2018-12-30T10:37:35.250Z,6.50
2018-12-30T10:40:01.443Z,6.27
2018-12-30T10:42:27.570Z,6.80
2018-12-30T10:44:53.689Z,7.27
2018-12-30T10:47:19.750Z,7.87
2018-12-30T10:49:45.855Z,7.83
2018-12-30T10:52:12.004Z,7.03
2018-12-30T10:54:38.175Z,7.17
2018-12-30T10:57:05.085Z,7.73
2018-12-30T10:59:31.233Z,6.80
2018-12-30T11:01:57.398Z,6.30
2018-12-30T11:04:23.557Z,6.93
2018-12-30T11:06:49.697Z,6.73
2018-12-30T11:09:15.820Z,7.20
2018-12-30T11:11:41.965Z,6.70
2018-12-30T11:14:08.231Z,6.97
2018-12-30T11:16:34.331Z,8.13
2018-12-30T11:19:00.513Z,7.93
2018-12-30T11:21:26.675Z,6.73
2018-12-30T11:23:52.821Z,6.10
2018-12-30T11:26:19.718Z,6.00
2018-12-30T11:28:45.912Z,6.30
2018-12-30T11:31:13.800Z,6.87
2018-12-30T11:33:38.286Z,6.57
2018-12-30T11:36:04.425Z,8.00
2018-12-30T11:38:30.631Z,8.60
2018-12-30T11:40:56.866Z,9.00
2018-12-30T11:43:23.033Z,8.03
2018-12-30T11:45:49.224Z,7.17
2018-12-30T11:48:15.460Z,5.10
2018-12-30T11:50:41.626Z,6.27
2018-12-30T11:53:07.773Z,6.10
2018-12-30T11:55:34.659Z,5.30
2018-12-30T11:58:00.829Z,6.90
2018-12-30T12:00:26.984Z,6.00
2018-12-30T12:02:53.199Z,6.47
2018-12-30T12:05:20.098Z,7.70
2018-12-30T12:07:46.239Z,7.10
2018-12-30T12:10:12.367Z,7.63
2018-12-30T12:12:38.525Z,9.03
2018-12-30T12:15:04.667Z,14.80
2018-12-30T12:17:30.791Z,7.30
2018-12-30T12:19:56.963Z,7.90
2018-12-30T12:22:23.084Z,7.30
2018-12-30T12:24:49.243Z,7.20
2018-12-30T12:27:15.373Z,6.73
2018-12-30T12:29:42.245Z,6.40
2018-12-30T12:32:08.373Z,7.13
2018-12-30T12:34:34.586Z,6.83
2018-12-30T12:37:01.501Z,5.47
2018-12-30T12:39:27.624Z,7.23
2018-12-30T12:41:53.770Z,8.30
2018-12-30T12:44:20.648Z,7.23
2018-12-30T12:46:46.783Z,7.00
2018-12-30T12:49:12.942Z,7.00
2018-12-30T12:51:39.102Z,8.50
2018-12-30T12:54:05.304Z,8.60
2018-12-30T12:56:31.438Z,8.90
2018-12-30T12:58:57.590Z,7.67
2018-12-30T13:01:23.792Z,6.60
2018-12-30T13:03:50.714Z,8.87
2018-12-30T13:06:16.884Z,5.23
2018-12-30T13:08:43.826Z,4.97
2018-12-30T13:11:10.709Z,5.10
2018-12-30T13:13:36.860Z,5.50
2018-12-30T13:16:03.458Z,4.27
2018-12-30T13:18:29.189Z,4.50
2018-12-30T13:20:55.325Z,6.20
2018-12-30T13:23:21.526Z,4.80
2018-12-30T13:25:47.703Z,3.77
2018-12-30T13:28:13.849Z,3.77
2018-12-30T13:30:40.786Z,4.00
2018-12-30T13:33:07.687Z,3.70
2018-12-30T13:35:33.829Z,4.67
2018-12-30T13:38:00.030Z,4.30
2018-12-30T13:40:26.184Z,4.93
2018-12-30T13:42:52.335Z,3.80
2018-12-30T13:45:18.491Z,3.77
2018-12-30T13:47:45.416Z,3.53
2018-12-30T13:50:11.555Z,3.70
2018-12-30T13:52:38.478Z,3.73
2018-12-30T13:55:04.616Z,3.90
2018-12-30T13:57:30.725Z,4.60
2018-12-30T13:59:57.023Z,3.50
2018-12-30T14:02:23.155Z,4.40
2018-12-30T14:04:49.294Z,5.43
2018-12-30T14:07:15.467Z,4.47
2018-12-30T14:09:41.629Z,4.37
2018-12-30T14:12:07.796Z,3.63
2018-12-30T14:14:33.954Z,4.70
2018-12-30T14:17:00.080Z,5.00
2018-12-30T14:19:26.118Z,5.03
2018-12-30T14:21:52.095Z,4.40
2018-12-30T14:24:25.059Z,4.70
2018-12-30T14:26:51.076Z,5.17
2018-12-30T14:29:17.095Z,4.90
2018-12-30T14:31:43.815Z,5.00
2018-12-30T14:34:09.802Z,4.00
2018-12-30T14:36:35.834Z,5.20
2018-12-30T14:39:01.839Z,5.20
2018-12-30T14:41:27.856Z,5.00
2018-12-30T14:43:53.868Z,4.60
2018-12-30T14:46:20.486Z,5.50
2018-12-30T14:48:47.223Z,5.47
2018-12-30T14:51:13.984Z,5.40
2018-12-30T14:53:40.044Z,4.70
2018-12-30T14:56:06.155Z,4.43
2018-12-30T14:58:32.200Z,4.60
2018-12-30T15:00:58.211Z,5.37
2018-12-30T15:03:24.189Z,4.77
2018-12-30T15:05:50.939Z,4.70
2018-12-30T15:08:16.959Z,4.90
2018-12-30T15:10:43.679Z,5.93
2018-12-30T15:13:09.751Z,5.63
2018-12-30T15:15:35.888Z,7.03
2018-12-30T15:18:01.880Z,5.80
2018-12-30T15:20:28.719Z,5.20
2018-12-30T15:22:55.614Z,5.00
2018-12-30T15:25:21.748Z,6.03
2018-12-30T15:27:47.848Z,4.87
2018-12-30T15:30:14.005Z,6.23
2018-12-30T15:32:40.107Z,9.23
2018-12-30T15:35:06.250Z,9.90
2018-12-30T15:37:32.363Z,7.53
2018-12-30T15:39:58.473Z,7.97
2018-12-30T15:42:24.627Z,6.73
2018-12-30T15:44:50.751Z,6.73
2018-12-30T15:47:16.747Z,5.90
2018-12-30T15:49:42.882Z,6.77
2018-12-30T15:52:09.005Z,5.30
2018-12-30T15:54:35.155Z,5.97
2018-12-30T15:57:01.146Z,6.27
2018-12-30T15:59:28.221Z,6.93
2018-12-30T16:01:54.493Z,6.30
2018-12-30T16:04:20.528Z,7.57
2018-12-30T16:06:47.250Z,8.03
2018-12-30T16:09:13.257Z,7.87
2018-12-30T16:11:39.346Z,6.20
2018-12-30T16:14:05.310Z,6.90
2018-12-30T16:16:31.391Z,7.10
2018-12-30T16:19:18.974Z,7.00
2018-12-30T16:21:45.062Z,7.60
2018-12-30T16:24:11.076Z,6.90
2018-12-30T16:26:37.110Z,6.90
2018-12-30T16:29:03.078Z,6.77
2018-12-30T16:31:29.226Z,8.80
2018-12-30T16:33:55.961Z,7.80
2018-12-30T16:36:21.913Z,7.10
2018-12-30T16:38:48.900Z,8.40
2018-12-30T16:41:14.875Z,9.20
2018-12-30T16:43:40.974Z,7.80
2018-12-30T16:46:06.990Z,8.17
2018-12-30T16:48:32.967Z,8.40
2018-12-30T16:50:59.018Z,7.50
2018-12-30T16:53:25.037Z,8.67
2018-12-30T16:55:51.753Z,8.47
2018-12-30T16:58:17.871Z,8.30
2018-12-30T17:00:43.884Z,8.10
2018-12-30T17:03:09.854Z,8.77
2018-12-30T17:05:35.875Z,8.93
2018-12-30T17:08:02.359Z,8.50
2018-12-30T17:10:28.618Z,7.27
2018-12-30T17:12:54.700Z,8.80
2018-12-30T17:15:21.418Z,7.93
2018-12-30T17:17:47.706Z,8.67
2018-12-30T17:20:14.214Z,7.50
2018-12-30T17:22:40.664Z,9.10
2018-12-30T17:25:06.646Z,8.80
2018-12-30T17:27:33.476Z,8.03
2018-12-30T17:29:59.601Z,8.57
2018-12-30T17:32:25.901Z,7.50
2018-12-30T17:34:51.847Z,9.37
2018-12-30T17:37:17.822Z,8.17
2018-12-30T17:39:43.881Z,8.63
2018-12-30T17:42:09.869Z,8.43
2018-12-30T17:44:37.197Z,9.27
2018-12-30T17:47:03.797Z,7.70
2018-12-30T17:49:29.766Z,9.30
2018-12-30T17:51:55.733Z,8.20
2018-12-30T17:54:21.729Z,8.47
2018-12-30T17:56:47.705Z,7.80
2018-12-30T17:59:13.797Z,9.93
2018-12-30T18:01:39.931Z,12.20
2018-12-30T18:04:05.974Z,15.30
2018-12-30T18:06:32.175Z,10.33
2018-12-30T18:08:58.141Z,8.63
2018-12-30T18:11:24.493Z,8.67
2018-12-30T18:13:57.453Z,7.97
2018-12-30T18:16:25.154Z,8.43
2018-12-30T18:18:51.121Z,9.90
2018-12-30T18:21:17.139Z,8.70
2018-12-30T18:23:43.313Z,8.00
2018-12-30T18:26:09.281Z,8.53
2018-12-30T18:28:35.241Z,8.90
2018-12-30T18:31:01.947Z,8.93
2018-12-30T18:33:27.946Z,7.93
2018-12-30T18:35:53.974Z,8.03
2018-12-30T18:38:19.969Z,7.20
2018-12-30T18:40:45.937Z,7.43
2018-12-30T18:43:11.936Z,8.20
2018-12-30T18:45:37.926Z,9.37
2018-12-30T18:48:03.881Z,8.17
2018-12-30T18:50:29.882Z,13.63
2018-12-30T18:52:55.932Z,10.07
2018-12-30T18:55:22.387Z,10.50
2018-12-30T18:57:48.705Z,8.97
2018-12-30T19:00:14.714Z,8.50
2018-12-30T19:02:40.697Z,8.43
2018-12-30T19:05:06.661Z,8.33
2018-12-30T19:07:34.713Z,8.20
2018-12-30T19:10:00.780Z,9.00
2018-12-30T19:12:26.857Z,7.60
2018-12-30T19:14:54.339Z,7.77
2018-12-30T19:17:22.024Z,7.90
2018-12-30T19:19:49.283Z,8.90
2018-12-30T19:22:17.739Z,8.60
2018-12-30T19:24:45.890Z,8.27
2018-12-30T19:27:13.820Z,7.60
2018-12-30T19:29:41.228Z,9.20
2018-12-30T19:32:08.854Z,8.40
2018-12-30T19:34:35.260Z,8.60
2018-12-30T19:37:07.658Z,8.73
2018-12-30T19:39:38.648Z,7.80
2018-12-30T19:42:10.141Z,9.17
2018-12-30T19:44:38.381Z,9.90
2018-12-30T19:47:13.164Z,9.40
2018-12-30T19:49:44.993Z,9.10
2018-12-30T19:52:13.502Z,11.10
2018-12-30T19:54:41.760Z,9.23
2018-12-30T19:57:12.789Z,9.90
2018-12-30T19:59:44.121Z,8.70
2018-12-30T20:02:14.628Z,8.43
2018-12-30T20:04:45.854Z,9.23
2018-12-30T20:07:16.421Z,9.83
2018-12-30T20:09:45.916Z,11.00
2018-12-30T20:12:21.345Z,11.77
2018-12-30T20:14:53.816Z,9.87
2018-12-30T20:17:22.175Z,9.90
2018-12-30T20:19:57.808Z,9.53
2018-12-30T20:22:28.233Z,10.57
2018-12-30T20:24:56.932Z,9.30
2018-12-30T20:27:25.198Z,10.70
2018-12-30T20:29:53.673Z,9.60
2018-12-30T20:32:25.408Z,11.03
2018-12-30T20:34:53.200Z,11.83
2018-12-30T20:37:19.342Z,11.40
2018-12-30T20:39:45.464Z,10.87
2018-12-30T20:42:11.494Z,12.90
2018-12-30T20:44:37.472Z,12.23
2018-12-30T20:47:03.877Z,12.40
2018-12-30T20:49:30.450Z,12.37
2018-12-30T20:51:56.397Z,12.03
2018-12-30T20:54:22.386Z,12.67
2018-12-30T20:56:48.400Z,12.10
2018-12-30T20:59:14.378Z,12.70
2018-12-30T21:02:07.156Z,13.20
2018-12-30T21:04:33.261Z,13.27
2018-12-30T21:06:59.255Z,15.27
2018-12-30T21:09:25.212Z,14.80
2018-12-30T21:11:51.181Z,13.47
2018-12-30T21:14:17.126Z,14.67
2018-12-30T21:16:43.126Z,14.27
2018-12-30T21:19:09.093Z,16.17
2018-12-30T21:21:35.171Z,14.97
2018-12-30T21:24:01.542Z,15.20
2018-12-30T21:26:27.177Z,17.07
2018-12-30T21:28:53.236Z,16.87
2018-12-30T21:31:19.414Z,17.03
2018-12-30T21:33:46.158Z,16.50
2018-12-30T21:36:12.153Z,16.83
2018-12-30T21:38:38.175Z,16.80
2018-12-30T21:41:04.922Z,16.07
2018-12-30T21:43:30.906Z,16.40
2018-12-30T21:45:56.851Z,17.17
2018-12-30T21:48:22.820Z,18.30
2018-12-30T21:50:49.540Z,16.90
2018-12-30T21:53:15.507Z,18.67
2018-12-30T21:55:41.541Z,20.47
2018-12-30T21:58:07.466Z,20.50
2018-12-30T22:00:33.416Z,20.13
2018-12-30T22:02:59.401Z,19.77
2018-12-30T22:05:25.377Z,19.23
2018-12-30T22:07:53.165Z,20.30
2018-12-30T22:10:19.147Z,20.00
2018-12-30T22:12:45.112Z,21.00
2018-12-30T22:15:11.158Z,19.53
2018-12-30T22:17:37.131Z,20.90
2018-12-30T22:20:03.081Z,21.70
2018-12-30T22:22:29.068Z,21.80
2018-12-30T22:24:56.031Z,20.67
2018-12-30T22:27:22.005Z,21.73
2018-12-30T22:29:47.961Z,21.77
2018-12-30T22:32:13.937Z,21.97
2018-12-30T22:34:40.936Z,21.10
2018-12-30T22:37:07.629Z,21.87
2018-12-30T22:39:33.589Z,23.30
2018-12-30T22:42:00.305Z,21.00
2018-12-30T22:44:26.271Z,21.23
2018-12-30T22:46:52.229Z,20.77
2018-12-30T22:49:18.225Z,20.77
2018-12-30T22:51:44.169Z,21.23
2018-12-30T22:54:10.145Z,21.50
2018-12-30T22:56:36.114Z,21.20
2018-12-30T22:59:02.081Z,26.30
2018-12-30T23:01:28.051Z,29.83
2018-12-30T23:03:54.002Z,26.77
2018-12-30T23:06:19.984Z,24.17
2018-12-30T23:08:45.958Z,20.00
2018-12-30T23:11:11.914Z,20.30
2018-12-30T23:13:37.901Z,22.63
2018-12-30T23:16:03.865Z,22.37
2018-12-30T23:18:29.825Z,21.30
2018-12-30T23:20:55.797Z,20.80
2018-12-30T23:23:21.742Z,22.87
2018-12-30T23:25:47.740Z,21.07
2018-12-30T23:28:14.797Z,20.90
2018-12-30T23:30:40.768Z,19.07
2018-12-30T23:33:07.494Z,20.47
2018-12-30T23:35:33.454Z,22.17
2018-12-30T23:37:59.428Z,20.53
2018-12-30T23:40:25.418Z,19.70
2018-12-30T23:42:51.371Z,20.60
2018-12-30T23:45:17.321Z,21.47
2018-12-30T23:47:43.312Z,19.60
2018-12-30T23:50:09.297Z,19.23
2018-12-30T23:52:35.270Z,21.40
2018-12-30T23:55:01.394Z,22.97
2018-12-30T23:57:27.371Z,22.67
2018-12-30T23:59:53.350Z,21.83
